Time;durP1;ratioP1;P1;durP2;ratioP2;P2;SDS_P1;SDS_P2;PMS_P1;PMS_P2;Temp;Humidity;BMP_temperature;BMP_pressure;BME280_temperature;BME280_humidity;BME280_pressure;Samples;Min_cycle;Max_cycle;Signal;HPM_P1;HPM_P2
2022/08/21 07:52:24;;;;;;;5.88;2.65;;;;;;;20.52;93.98;101268.41;5076385;28;20183;-74
2022/08/21 07:54:57;;;;;;;11.02;3.45;;;;;;;20.62;92.72;101258.84;5061398;28;20058;-74
2022/08/21 07:57:28;;;;;;;16.33;5.22;;;;;;;20.79;93.45;101263.84;5063108;28;20053;-74
2022/08/21 07:59:55;;;;;;;7.25;2.25;;;;;;;20.81;91.39;101258.56;5064048;28;20051;-72
2022/08/21 08:02:26;;;;;;;14.77;5.20;;;;;;;20.98;92.09;101264.84;5061707;28;20047;-74
2022/08/21 08:04:53;;;;;;;17.20;4.40;;;;;;;21.14;90.50;101259.84;5059304;28;20055;-74
2022/08/21 08:07:19;;;;;;;4.18;1.88;;;;;;;21.20;87.53;101271.28;5059972;28;20136;-72
2022/08/21 08:09:46;;;;;;;14.63;4.63;;;;;;;21.35;87.82;101267.50;5062036;28;20450;-75
2022/08/21 08:12:12;;;;;;;8.80;3.15;;;;;;;21.32;85.90;101267.63;5060635;28;20048;-72
2022/08/21 08:14:39;;;;;;;13.00;5.50;;;;;;;21.33;86.25;101264.34;5061836;28;20052;-73
2022/08/21 08:17:05;;;;;;;15.85;5.40;;;;;;;21.35;86.76;101261.88;5062527;28;20127;-72
2022/08/21 08:19:32;;;;;;;13.40;4.78;;;;;;;21.35;85.58;101261.06;5062829;28;20080;-71
2022/08/21 08:21:58;;;;;;;10.45;3.72;;;;;;;21.46;85.48;101267.13;5053961;28;20044;-72
2022/08/21 08:24:25;;;;;;;8.93;3.08;;;;;;;21.46;85.82;101261.50;5059031;28;20136;-71
2022/08/21 08:26:53;;;;;;;17.95;4.93;;;;;;;21.67;86.75;101263.50;5060414;28;20170;-74
2022/08/21 08:29:21;;;;;;;2.67;1.42;;;;;;;21.60;82.65;101266.59;5062096;28;20053;-73
2022/08/21 08:31:48;;;;;;;5.72;2.13;;;;;;;21.73;83.05;101265.28;5061069;28;20055;-75
2022/08/21 08:34:15;;;;;;;10.65;3.42;;;;;;;21.81;82.32;101277.06;5061409;28;20049;-75
2022/08/21 08:36:51;;;;;;;11.55;2.40;;;;;;;21.85;82.32;101270.06;5062735;28;20068;-74
2022/08/21 08:39:17;;;;;;;14.35;4.70;;;;;;;22.10;81.83;101254.97;5063417;28;20139;-71
2022/08/21 08:42:06;;;;;;;8.82;2.97;;;;;;;22.05;79.12;101264.03;5063430;28;20045;-72
2022/08/21 08:45:00;;;;;;;17.67;4.90;;;;;;;22.04;79.08;101251.97;5059365;28;20059;-72
2022/08/21 08:47:28;;;;;;;10.10;2.87;;;;;;;22.06;76.92;101260.75;5060503;28;20486;-75
2022/08/21 08:50:02;;;;;;;7.88;2.55;;;;;;;22.01;76.26;101257.75;5056227;28;20078;-75
2022/08/21 08:52:36;;;;;;;6.18;2.17;;;;;;;22.00;75.44;101261.84;5055346;28;20036;-72
2022/08/21 08:55:15;;;;;;;3.78;1.30;;;;;;;22.22;74.13;101257.69;5054574;28;20048;-72
2022/08/21 08:57:47;;;;;;;11.13;3.55;;;;;;;22.22;74.23;101254.88;5053219;28;20049;-71
2022/08/21 09:00:20;;;;;;;11.50;3.33;;;;;;;22.31;75.20;101262.59;5054365;28;20144;-70
2022/08/21 09:02:48;;;;;;;14.18;4.97;;;;;;;22.57;73.52;101256.25;5044549;28;20134;-71
2022/08/21 09:05:58;;;;;;;8.55;2.00;;;;;;;22.39;71.63;101259.00;5042408;28;20053;-69
2022/08/21 09:08:50;;;;;;;4.78;1.88;;;;;;;22.41;71.44;101241.63;5041477;28;20107;-70
2022/08/21 09:11:54;;;;;;;8.63;2.78;;;;;;;22.53;72.09;101246.38;5044375;28;20045;-69
2022/08/21 09:14:43;;;;;;;10.23;2.45;;;;;;;22.74;70.36;101245.47;5047412;28;20053;-68
2022/08/21 09:17:34;;;;;;;10.65;3.25;;;;;;;22.78;69.15;101249.72;5048085;28;20051;-69
2022/08/21 09:20:06;;;;;;;8.15;2.45;;;;;;;22.76;68.65;101242.97;5045002;28;20052;-68
2022/08/21 09:22:36;;;;;;;2.03;1.17;;;;;;;22.83;68.46;101245.50;5030086;28;20045;-66
2022/08/21 09:25:12;;;;;;;7.45;2.83;;;;;;;23.12;68.60;101234.53;5022066;28;20573;-69
2022/08/21 09:27:39;;;;;;;10.43;3.30;;;;;;;23.18;67.50;101249.56;5020386;28;20053;-69
2022/08/21 09:30:07;;;;;;;8.60;2.65;;;;;;;23.11;66.82;101240.66;5029801;28;20059;-71
2022/08/21 09:32:35;;;;;;;15.23;3.88;;;;;;;23.17;67.07;101235.91;5025274;28;20363;-71
2022/08/21 09:35:22;;;;;;;13.82;4.00;;;;;;;23.25;65.33;101237.22;5027596;28;20128;-68
2022/08/21 09:37:53;;;;;;;9.90;2.90;;;;;;;23.09;66.25;101241.13;5022940;28;20056;-71
2022/08/21 09:40:35;;;;;;;6.82;2.10;;;;;;;22.99;64.85;101236.72;5025712;28;20053;-68
2022/08/21 09:43:11;;;;;;;18.25;3.90;;;;;;;23.22;64.73;101233.28;5022622;28;20076;-70
2022/08/21 09:45:39;;;;;;;15.00;3.17;;;;;;;23.44;65.81;101236.72;5031063;28;20434;-74
2022/08/21 09:48:24;;;;;;;8.27;2.88;;;;;;;23.67;64.88;101238.88;5027917;28;20041;-73
2022/08/21 09:50:53;;;;;;;8.90;2.58;;;;;;;23.48;62.30;101230.91;5030198;28;20084;-71
2022/08/21 09:53:24;;;;;;;3.75;1.63;;;;;;;23.45;63.40;101234.69;5030667;28;20053;-71
2022/08/21 09:58:42;;;;;;;7.32;2.63;;;;;;;23.70;64.11;101232.28;5028916;28;20510;-71
2022/08/21 10:01:14;;;;;;;10.40;2.30;;;;;;;23.76;61.61;101229.59;5032024;28;20231;-69
2022/08/21 10:03:41;;;;;;;9.00;2.13;;;;;;;23.88;56.63;101229.38;5031526;28;20523;-72
2022/08/21 10:06:10;;;;;;;7.93;1.88;;;;;;;24.07;55.66;101230.91;5029157;28;20285;-69
2022/08/21 10:08:39;;;;;;;10.93;2.47;;;;;;;24.14;55.73;101219.25;5023972;28;20159;-71
2022/08/21 10:11:14;;;;;;;4.18;1.63;;;;;;;24.22;54.32;101223.28;5032275;28;20055;-68
2022/08/21 10:14:07;;;;;;;8.20;2.42;;;;;;;24.49;54.22;101217.47;5035156;28;20060;-71
2022/08/21 10:17:01;;;;;;;6.68;2.00;;;;;;;24.61;54.31;101207.19;5019602;28;20048;-68
2022/08/21 10:19:43;;;;;;;4.00;1.20;;;;;;;24.51;52.99;101223.47;5035974;28;20377;-71
2022/08/21 10:22:35;;;;;;;7.65;1.88;;;;;;;24.52;53.46;101227.03;5029977;28;20048;-69
2022/08/21 10:25:17;;;;;;;8.07;2.45;;;;;;;24.53;54.95;101220.13;5029943;28;20540;-71
2022/08/21 10:27:44;;;;;;;8.25;2.08;;;;;;;24.61;54.26;101202.31;5031347;28;20044;-70
2022/08/21 10:30:16;;;;;;;8.60;1.80;;;;;;;24.77;53.04;101212.47;5027418;28;20064;-71
2022/08/21 10:33:11;;;;;;;5.72;1.80;;;;;;;24.93;51.18;101218.44;5029662;28;20040;-71
2022/08/21 10:35:59;;;;;;;6.40;2.13;;;;;;;24.71;53.08;101203.84;5027354;28;20051;-71
2022/08/21 10:38:44;;;;;;;10.55;2.72;;;;;;;25.03;53.32;101202.97;5027523;28;20067;-71
2022/08/21 10:41:44;;;;;;;4.75;1.88;;;;;;;25.24;51.34;101203.09;5024278;28;20060;-69
2022/08/21 10:44:29;;;;;;;6.10;1.08;;;;;;;25.35;50.40;101206.16;5028568;28;20048;-68
2022/08/21 10:47:13;;;;;;;5.13;1.13;;;;;;;25.17;49.56;101192.16;5026797;28;20049;-71
2022/08/21 10:49:42;;;;;;;6.03;1.48;;;;;;;25.35;49.83;101204.09;5030793;28;20307;-72
2022/08/21 10:52:20;;;;;;;8.65;1.70;;;;;;;25.73;51.06;101209.66;5026136;28;20053;-70
2022/08/21 10:55:06;;;;;;;4.65;1.33;;;;;;;25.46;50.96;101206.34;5028682;28;20045;-74
2022/08/21 10:57:47;;;;;;;4.82;1.48;;;;;;;25.48;50.66;101198.16;5022521;28;20055;-72
2022/08/21 11:00:21;;;;;;;5.18;1.27;;;;;;;25.40;50.04;101209.06;5025197;28;20469;-72
2022/08/21 11:02:59;;;;;;;5.40;1.50;;;;;;;25.60;49.42;101197.06;5023695;28;20049;-73
2022/08/21 11:05:41;;;;;;;5.68;1.95;;;;;;;25.92;49.71;101196.81;5026113;28;20055;-72
2022/08/21 11:08:18;;;;;;;6.80;1.58;;;;;;;26.14;46.01;101197.19;5025696;28;20130;-72
2022/08/21 11:11:05;;;;;;;9.18;1.88;;;;;;;26.14;47.07;101197.19;5026502;28;20798;-72
2022/08/21 11:13:45;;;;;;;3.83;1.50;;;;;;;25.90;47.68;101190.09;5023852;28;20763;-72
2022/08/21 11:16:39;;;;;;;3.80;1.25;;;;;;;25.77;47.57;101203.78;5028857;28;20055;-73
2022/08/21 11:19:36;;;;;;;6.82;1.67;;;;;;;25.70;47.31;101207.00;5019427;28;20069;-72
2022/08/21 11:22:28;;;;;;;7.28;1.92;;;;;;;25.93;46.61;101200.44;5020061;28;20045;-72
2022/08/21 11:25:07;;;;;;;6.10;1.50;;;;;;;26.21;46.47;101193.94;5024587;28;20056;-71
2022/08/21 11:27:45;;;;;;;3.60;1.83;;;;;;;25.91;46.40;101200.19;5021011;28;20262;-71
2022/08/21 11:30:14;;;;;;;7.18;1.75;;;;;;;26.17;47.70;101195.44;5024231;28;20260;-72
2022/08/21 11:32:46;;;;;;;7.45;2.05;;;;;;;26.04;47.31;101186.47;5024064;28;20045;-72
2022/08/21 11:35:39;;;;;;;5.82;1.55;;;;;;;26.24;47.02;101192.19;5021644;28;20049;-69
2022/08/21 11:38:21;;;;;;;5.15;1.85;;;;;;;26.35;46.06;101192.31;5026405;28;20713;-73
2022/08/21 11:40:59;;;;;;;8.27;1.58;;;;;;;26.36;45.61;101194.66;5026129;28;20056;-71
2022/08/21 11:43:35;;;;;;;8.68;1.63;;;;;;;26.49;45.25;101180.94;5022608;28;20483;-72
2022/08/21 11:46:39;;;;;;;2.08;0.82;;;;;;;26.13;45.70;101194.84;5027472;28;20053;-72
2022/08/21 11:49:39;;;;;;;4.15;1.38;;;;;;;26.54;44.47;101187.97;5022777;28;20359;-71
2022/08/21 11:52:23;;;;;;;3.70;1.92;;;;;;;26.44;42.64;101198.66;5026580;28;20421;-72
2022/08/21 11:54:59;;;;;;;8.02;1.95;;;;;;;26.70;43.95;101198.78;5026279;28;20059;-71
2022/08/21 11:57:31;;;;;;;4.80;1.58;;;;;;;26.81;44.30;101199.69;5024724;28;20060;-70
2022/08/21 12:00:16;;;;;;;2.60;1.17;;;;;;;26.80;43.06;101200.19;5025221;28;20168;-75
2022/08/21 12:02:47;;;;;;;4.25;1.30;;;;;;;26.78;43.61;101200.69;5022987;28;20055;-75
2022/08/21 12:05:54;;;;;;;4.72;1.67;;;;;;;27.16;43.92;101191.03;5026260;28;20064;-72
2022/08/21 12:08:32;;;;;;;4.95;1.67;;;;;;;27.30;42.68;101198.72;5024939;28;20049;-73
2022/08/21 12:11:10;;;;;;;9.00;1.77;;;;;;;27.62;43.14;101185.31;5021345;28;20575;-72
2022/08/21 12:13:40;;;;;;;5.43;1.70;;;;;;;27.84;41.64;101194.03;5022557;28;20094;-73
2022/08/21 12:16:39;;;;;;;6.00;1.77;;;;;;;27.83;40.46;101198.94;5024139;28;20052;-72
2022/08/21 12:19:09;;;;;;;6.82;1.80;;;;;;;27.97;40.99;101192.34;5027301;28;20045;-75
2022/08/21 12:21:48;;;;;;;7.68;1.65;;;;;;;27.98;39.51;101184.59;5027052;28;20045;-75
2022/08/21 12:24:14;;;;;;;5.15;1.65;;;;;;;28.34;39.53;101187.41;5021485;28;20671;-74
2022/08/21 12:26:52;;;;;;;5.95;1.48;;;;;;;28.07;39.29;101179.50;5025369;28;20053;-72
2022/08/21 12:29:23;;;;;;;2.00;0.90;;;;;;;28.03;38.96;101184.63;5026231;28;20512;-72
2022/08/21 12:31:57;;;;;;;7.78;1.73;;;;;;;28.48;39.42;101177.19;5027536;28;20052;-73
2022/08/21 12:34:31;;;;;;;6.75;1.80;;;;;;;29.14;38.09;101185.97;5022780;28;20806;-71
2022/08/21 12:37:21;;;;;;;4.17;1.40;;;;;;;28.97;37.97;101176.59;5026963;28;20048;-73
2022/08/21 12:39:52;;;;;;;3.65;1.00;;;;;;;29.00;37.47;101179.19;5027058;28;20053;-73
2022/08/21 12:42:37;;;;;;;1.63;1.10;;;;;;;28.63;37.03;101180.59;5031637;28;20836;-74
2022/08/21 12:45:17;;;;;;;0.80;0.40;;;;;;;28.53;37.82;101190.66;5028409;28;20052;-75
2022/08/21 12:47:48;;;;;;;8.75;1.90;;;;;;;29.23;38.10;101171.50;5032431;28;20053;-73
2022/08/21 12:50:23;;;;;;;6.90;1.70;;;;;;;30.11;36.64;101167.88;5030008;28;20057;-73
2022/08/21 12:53:10;;;;;;;6.47;2.55;;;;;;;30.36;36.64;101163.94;5033391;28;20053;-73
2022/08/21 12:55:46;;;;;;;6.55;1.50;;;;;;;31.32;36.08;101164.56;5028307;28;20057;-73
2022/08/21 12:58:20;;;;;;;8.13;1.67;;;;;;;31.61;32.95;101169.50;5031538;28;20049;-73
2022/08/21 13:00:54;;;;;;;7.78;1.98;;;;;;;31.71;32.62;101170.72;5030197;28;20049;-74
2022/08/21 13:03:22;;;;;;;3.63;1.73;;;;;;;30.79;32.88;101183.03;5030988;28;20497;-74
2022/08/21 13:05:51;;;;;;;3.47;1.48;;;;;;;30.34;33.73;101167.34;5017960;28;20550;-74
2022/08/21 13:08:20;;;;;;;2.75;1.55;;;;;;;30.58;34.17;101158.94;5030014;28;20052;-75
2022/08/21 13:10:56;;;;;;;5.50;1.73;;;;;;;30.50;33.82;101166.50;5032468;28;20052;-75
2022/08/21 13:13:26;;;;;;;5.72;1.52;;;;;;;30.68;33.97;101165.91;5025408;28;20060;-75
2022/08/21 13:16:04;;;;;;;6.65;1.45;;;;;;;30.33;34.11;101156.44;5030060;28;20435;-75
2022/08/21 13:18:34;;;;;;;5.60;1.60;;;;;;;30.79;34.73;101153.66;5027945;28;20052;-74
2022/08/21 13:21:12;;;;;;;3.55;1.30;;;;;;;30.68;33.21;101153.69;5026673;28;20095;-73
2022/08/21 13:23:39;;;;;;;4.07;1.30;;;;;;;30.55;34.00;101153.50;5029285;28;20705;-74
2022/08/21 13:26:14;;;;;;;4.47;1.40;;;;;;;30.79;33.45;101156.53;5027223;28;20044;-74
2022/08/21 13:28:47;;;;;;;4.68;1.30;;;;;;;31.00;34.02;101155.63;5027054;28;20115;-74
2022/08/21 13:31:20;;;;;;;6.57;1.50;;;;;;;31.69;33.17;101141.88;5026615;28;20068;-74
2022/08/21 13:33:49;;;;;;;7.25;1.83;;;;;;;31.85;32.20;101149.53;5023441;28;20045;-75
2022/08/21 13:36:25;;;;;;;4.85;1.50;;;;;;;32.26;32.12;101149.41;5029991;28;20053;-74
2022/08/21 13:38:54;;;;;;;7.57;1.70;;;;;;;31.62;31.87;101148.19;5034160;28;20052;-74
2022/08/21 13:41:33;;;;;;;6.35;1.65;;;;;;;31.87;32.62;101147.72;5021051;28;20079;-74
2022/08/21 13:44:14;;;;;;;5.88;1.85;;;;;;;32.22;31.13;101146.81;5024226;28;20064;-73
2022/08/21 13:46:47;;;;;;;4.47;1.58;;;;;;;30.77;32.34;101151.34;5027428;28;20126;-74
2022/08/21 13:49:18;;;;;;;5.95;2.10;;;;;;;29.95;34.32;101145.84;5023942;28;20053;-73
2022/08/21 13:51:46;;;;;;;4.75;1.50;;;;;;;30.20;33.95;101145.56;5019610;28;20823;-73
2022/08/21 13:54:23;;;;;;;12.10;2.15;;;;;;;29.90;34.40;101140.94;5025364;28;20052;-71
2022/08/21 13:56:50;;;;;;;3.25;1.27;;;;;;;29.80;34.65;101140.44;5023735;28;20059;-72
2022/08/21 13:59:25;;;;;;;5.38;1.58;;;;;;;29.83;34.87;101135.78;5028862;28;20057;-73
2022/08/21 14:01:58;;;;;;;6.50;1.30;;;;;;;29.98;34.85;101137.03;5025806;28;20696;-76
2022/08/21 14:04:42;;;;;;;8.68;1.60;;;;;;;30.06;35.11;101143.00;5026099;28;20061;-73
2022/08/21 14:07:29;;;;;;;3.03;0.90;;;;;;;29.92;34.42;101147.69;5026269;28;20064;-73
2022/08/21 14:09:55;;;;;;;4.50;1.40;;;;;;;30.56;34.83;101137.91;5025710;28;20045;-72
2022/08/21 14:12:41;;;;;;;4.82;1.63;;;;;;;31.22;33.16;101143.28;5026957;28;20489;-73
2022/08/21 14:15:09;;;;;;;5.68;1.55;;;;;;;31.75;32.50;101142.59;5027014;28;20056;-73
2022/08/21 14:17:39;;;;;;;4.07;1.08;;;;;;;31.08;31.71;101150.13;5028451;28;20063;-72
2022/08/21 14:20:07;;;;;;;2.63;1.00;;;;;;;30.16;32.84;101142.19;5028765;28;20049;-74
2022/08/21 14:22:41;;;;;;;8.25;1.80;;;;;;;30.08;33.84;101152.56;5029579;28;20067;-73
2022/08/21 14:25:13;;;;;;;5.57;1.93;;;;;;;29.77;34.32;101135.00;5023952;28;20052;-73
2022/08/21 14:28:04;;;;;;;3.85;1.83;;;;;;;29.45;35.21;101148.72;5025497;28;20309;-74
2022/08/21 14:30:38;;;;;;;7.07;1.70;;;;;;;29.17;35.75;101145.84;5030207;28;20685;-72
2022/08/21 14:33:12;;;;;;;6.75;1.90;;;;;;;28.72;36.32;101135.59;5029505;28;20049;-74
2022/08/21 14:35:39;;;;;;;6.20;1.45;;;;;;;28.56;37.05;101153.41;5022973;28;20064;-76
2022/08/21 14:38:16;;;;;;;3.88;1.70;;;;;;;28.37;37.93;101146.56;5027302;28;20048;-75
2022/08/21 14:40:46;;;;;;;9.68;1.70;;;;;;;28.47;37.70;101138.59;5027179;28;20057;-73
2022/08/21 14:43:13;;;;;;;4.40;1.55;;;;;;;28.54;37.84;101132.41;5023374;28;20068;-78
2022/08/21 14:45:40;;;;;;;4.28;1.80;;;;;;;28.53;37.81;101130.88;5031088;28;20067;-74
2022/08/21 14:48:08;;;;;;;8.80;1.92;;;;;;;28.59;38.06;101135.31;5019041;28;20439;-73
2022/08/21 14:50:35;;;;;;;5.38;1.70;;;;;;;28.49;38.62;101138.88;5022234;28;20504;-75
2022/08/21 14:53:03;;;;;;;6.53;1.70;;;;;;;28.48;39.31;101115.31;5027413;28;20084;-76
2022/08/21 14:58:24;;;;;;;8.88;1.83;;;;;;;28.42;39.76;101127.97;5023588;28;20053;-75
2022/08/21 15:00:56;;;;;;;6.85;1.80;;;;;;;28.49;39.67;101125.44;5020252;28;20067;-74
2022/08/21 15:03:22;;;;;;;6.25;1.90;;;;;;;28.36;39.58;101124.31;5015462;28;20097;-78
2022/08/21 15:05:49;;;;;;;6.60;1.98;;;;;;;28.41;39.38;101134.94;5022634;28;20910;-75
2022/08/21 15:08:17;;;;;;;9.30;1.83;;;;;;;28.58;39.28;101132.97;5025780;28;20086;-76
2022/08/21 15:10:44;;;;;;;11.13;2.03;;;;;;;28.87;38.62;101130.47;5027081;28;20390;-75
2022/08/21 15:13:31;;;;;;;10.45;2.22;;;;;;;29.23;38.53;101134.44;5028317;28;20052;-78
2022/08/21 15:15:58;;;;;;;3.92;1.45;;;;;;;29.43;38.04;101137.81;5030160;28;20650;-78
2022/08/21 15:18:27;;;;;;;7.50;1.90;;;;;;;29.62;37.24;101138.91;5025802;28;20106;-75
2022/08/21 15:20:53;;;;;;;10.38;2.15;;;;;;;29.58;36.84;101131.88;5034973;28;20060;-82
2022/08/21 15:23:20;;;;;;;9.25;2.00;;;;;;;29.92;37.04;101129.78;5034451;28;20045;-82
2022/08/21 15:25:48;;;;;;;10.13;2.30;;;;;;;30.13;35.96;101125.34;5030033;28;20048;-75
2022/08/21 15:52:13;;;;;;;3.67;1.73;;;;;;;28.80;37.15;101111.03;5074007;27;20198;-73
2022/08/21 15:54:40;;;;;;;6.60;2.10;;;;;;;28.86;37.83;101120.38;5070535;28;20865;-72
2022/08/21 15:57:09;;;;;;;9.88;1.58;;;;;;;28.65;37.77;101113.31;5060864;28;20165;-73
2022/08/21 15:59:43;;;;;;;7.95;1.95;;;;;;;28.42;38.50;101119.41;5064872;28;20151;-73
2022/08/21 16:02:22;;;;;;;2.45;0.75;;;;;;;27.84;38.92;101120.09;5059441;28;20080;-76
2022/08/21 16:04:49;;;;;;;7.40;2.30;;;;;;;27.69;39.60;101125.94;5065471;28;20519;-74
2022/08/21 16:07:15;;;;;;;6.80;1.90;;;;;;;27.48;40.02;101119.56;5065005;28;20048;-73
2022/08/21 16:09:42;;;;;;;7.22;2.38;;;;;;;27.58;40.53;101123.03;5055199;28;20056;-74
2022/08/21 16:12:21;;;;;;;9.02;2.05;;;;;;;27.60;39.92;101116.84;5060975;28;20702;-72
2022/08/21 16:14:49;;;;;;;10.65;1.75;;;;;;;27.73;40.29;101114.34;5064471;28;20076;-74
2022/08/21 16:17:16;;;;;;;8.10;1.80;;;;;;;27.52;40.01;101121.41;5062841;28;20056;-73
2022/08/21 16:19:42;;;;;;;8.30;1.95;;;;;;;27.56;39.60;101105.69;5062499;28;20136;-72
2022/08/21 16:22:09;;;;;;;9.73;2.40;;;;;;;27.65;39.57;101108.34;5046762;28;20055;-73
2022/08/21 16:24:35;;;;;;;6.93;1.98;;;;;;;27.62;39.40;101108.56;5055213;28;20128;-73
2022/08/21 16:27:05;;;;;;;5.35;1.77;;;;;;;27.65;39.48;101119.72;5048545;28;20482;-73
2022/08/21 16:29:35;;;;;;;9.60;2.90;;;;;;;27.72;39.21;101122.09;5057337;28;20071;-72
2022/08/21 16:32:03;;;;;;;11.27;3.03;;;;;;;27.88;39.22;101121.47;5054219;28;20163;-72
2022/08/21 16:34:30;;;;;;;4.45;1.98;;;;;;;27.72;38.89;101118.47;5054875;28;20123;-72
2022/08/21 16:36:57;;;;;;;5.65;2.10;;;;;;;27.83;38.92;101110.78;5055579;28;20566;-73
2022/08/21 16:39:24;;;;;;;7.95;3.47;;;;;;;27.90;38.71;101118.88;5052587;28;20056;-73
2022/08/21 16:41:51;;;;;;;18.23;7.47;;;;;;;27.83;38.34;101112.84;5055528;28;20486;-74
2022/08/21 16:44:20;;;;;;;12.23;4.85;;;;;;;27.93;38.31;101117.06;5058910;28;20051;-72
2022/08/21 16:46:47;;;;;;;19.98;7.68;;;;;;;27.93;37.89;101117.84;5053827;28;20081;-71
2022/08/21 16:49:13;;;;;;;9.23;2.60;;;;;;;27.93;37.98;101115.03;5057881;28;20071;-73
2022/08/21 16:51:40;;;;;;;14.90;5.45;;;;;;;27.96;38.24;101121.75;5055603;28;20045;-72
2022/08/21 16:54:07;;;;;;;11.82;2.10;;;;;;;27.72;37.70;101113.56;5055366;28;20058;-72
2022/08/21 16:56:33;;;;;;;10.35;2.10;;;;;;;27.56;38.19;101119.91;5051076;28;20060;-73
2022/08/21 16:59:05;;;;;;;12.25;2.80;;;;;;;27.56;38.40;101113.44;5057122;28;20171;-71
2022/08/21 17:01:34;;;;;;;5.63;1.70;;;;;;;27.48;38.36;101113.13;5056660;28;20043;-71
2022/08/21 17:04:02;;;;;;;4.90;1.85;;;;;;;27.50;38.41;101116.22;5045764;28;20497;-71
2022/08/21 17:06:29;;;;;;;9.18;3.30;;;;;;;27.58;38.39;101123.03;5033884;28;20163;-75
2022/08/21 17:08:57;;;;;;;5.00;2.45;;;;;;;27.53;38.21;101117.28;5053317;28;20044;-75
2022/08/21 17:11:26;;;;;;;7.55;1.80;;;;;;;27.50;38.55;101116.22;5045594;28;20505;-75
2022/08/21 17:14:11;;;;;;;6.97;1.42;;;;;;;27.39;39.28;101116.94;5045803;28;20309;-76
2022/08/21 17:16:39;;;;;;;7.85;2.10;;;;;;;27.19;39.14;101116.19;5044225;28;20080;-75
2022/08/21 17:19:06;;;;;;;8.07;1.52;;;;;;;27.17;39.41;101121.59;5042907;28;20056;-76
2022/08/21 17:21:33;;;;;;;5.55;1.70;;;;;;;27.12;39.60;101111.75;5043435;28;20377;-76
2022/08/21 17:24:00;;;;;;;10.90;2.42;;;;;;;27.08;38.95;101122.56;5050061;28;20163;-73
2022/08/21 17:26:27;;;;;;;7.75;1.60;;;;;;;27.12;39.26;101117.44;5046020;28;20155;-73
2022/08/21 17:28:53;;;;;;;10.38;1.70;;;;;;;27.07;39.28;101117.38;5034479;28;20452;-74
2022/08/21 17:31:21;;;;;;;6.00;1.75;;;;;;;27.04;39.05;101118.38;5040346;28;20051;-72
2022/08/21 17:33:51;;;;;;;6.85;1.60;;;;;;;27.01;38.86;101120.16;5047656;28;20080;-75
2022/08/21 17:36:20;;;;;;;4.18;1.50;;;;;;;26.93;38.65;101119.03;5044149;28;20583;-76
2022/08/21 17:38:47;;;;;;;6.78;2.17;;;;;;;26.80;38.71;101117.88;5039795;28;20805;-73
2022/08/21 17:41:14;;;;;;;4.95;1.63;;;;;;;26.70;38.96;101120.06;5045454;28;20044;-74
2022/08/21 17:43:42;;;;;;;10.45;2.00;;;;;;;26.59;39.26;101107.78;5048555;28;20118;-73
2022/08/21 17:46:21;;;;;;;4.45;1.75;;;;;;;26.49;39.46;101112.06;5045491;28;20056;-73
2022/08/21 17:48:48;;;;;;;6.43;1.80;;;;;;;26.43;39.87;101116.88;5043751;28;20967;-71
2022/08/21 17:51:15;;;;;;;6.85;2.17;;;;;;;26.34;39.90;101114.97;5037188;28;20336;-74
2022/08/21 17:53:43;;;;;;;4.25;1.77;;;;;;;26.24;40.60;101118.44;5046182;28;20825;-72
2022/08/21 17:56:12;;;;;;;6.88;1.90;;;;;;;26.15;40.80;101110.84;5049832;28;20367;-72
2022/08/21 17:58:41;;;;;;;6.07;1.80;;;;;;;26.04;40.40;101109.91;5044614;28;20572;-73
2022/08/21 18:01:09;;;;;;;6.20;1.90;;;;;;;25.94;40.93;101112.06;5044432;28;20728;-75
2022/08/21 18:03:36;;;;;;;5.75;1.70;;;;;;;25.86;40.96;101112.97;5037282;28;20378;-75
2022/08/21 18:06:04;;;;;;;8.52;1.70;;;;;;;25.80;40.96;101110.06;5045909;28;20059;-74
2022/08/21 18:08:32;;;;;;;5.18;1.45;;;;;;;25.72;41.74;101119.47;5044019;28;20072;-75
2022/08/21 18:10:59;;;;;;;6.10;2.38;;;;;;;25.53;42.14;101118.91;5046493;28;20129;-74
2022/08/21 18:13:32;;;;;;;6.70;2.00;;;;;;;25.42;42.28;101126.44;5047757;28;20054;-74
2022/08/21 18:16:00;;;;;;;6.78;2.25;;;;;;;25.29;42.41;101120.25;5050805;28;20102;-74
2022/08/21 18:18:35;;;;;;;5.50;1.80;;;;;;;25.20;43.12;101117.53;5054115;28;20051;-75
2022/08/21 18:21:02;;;;;;;6.07;2.00;;;;;;;25.08;43.70;101120.16;5047319;28;20309;-73
2022/08/21 18:23:28;;;;;;;6.47;1.92;;;;;;;24.97;44.03;101124.84;5049745;28;20206;-74
2022/08/21 18:26:12;;;;;;;7.93;2.58;;;;;;;24.88;44.10;101117.22;5049157;28;20068;-76
2022/08/21 18:28:39;;;;;;;7.95;2.00;;;;;;;24.79;44.46;101122.97;5049977;28;20051;-73
2022/08/21 18:31:09;;;;;;;11.25;2.22;;;;;;;24.74;44.88;101132.13;5051471;28;20820;-74
2022/08/21 18:33:37;;;;;;;9.20;2.58;;;;;;;24.60;45.44;101115.88;5050402;28;20056;-74
2022/08/21 18:36:04;;;;;;;9.02;1.92;;;;;;;24.52;46.20;101122.38;5049283;28;20102;-74
2022/08/21 18:38:31;;;;;;;7.45;2.22;;;;;;;24.37;46.72;101118.72;5048594;28;20132;-77
2022/08/21 18:40:58;;;;;;;10.15;2.38;;;;;;;24.25;47.55;101129.03;5047648;28;20078;-74
2022/08/21 18:43:25;;;;;;;8.60;2.42;;;;;;;24.11;48.58;101132.56;5038842;28;20052;-74
2022/08/21 18:45:52;;;;;;;5.65;1.98;;;;;;;24.00;48.76;101135.13;5050323;28;20049;-74
2022/08/21 18:48:19;;;;;;;9.95;2.75;;;;;;;23.96;48.69;101133.78;5042343;28;20755;-73
2022/08/21 18:50:52;;;;;;;6.88;2.03;;;;;;;23.89;49.21;101137.69;5045564;28;20622;-74
2022/08/21 18:53:19;;;;;;;7.88;2.25;;;;;;;23.89;48.88;101136.91;5047523;28;20594;-75
2022/08/21 18:55:54;;;;;;;;;;;;;;;23.85;49.59;101139.91;5045664;28;20056;-74
2022/08/21 18:58:24;;;;;;;8.77;2.35;;;;;;;23.81;48.87;101139.31;5046222;28;19932;-74
2022/08/21 19:00:51;;;;;;;8.50;3.00;;;;;;;23.73;49.54;101143.75;5046748;28;20052;-74
2022/08/21 19:03:21;;;;;;;7.22;2.35;;;;;;;23.68;49.38;101140.75;5046622;28;20087;-74
2022/08/21 19:05:51;;;;;;;6.80;2.47;;;;;;;23.63;50.17;101149.91;5045697;28;20445;-75
2022/08/21 19:08:21;;;;;;;9.00;3.05;;;;;;;23.49;50.93;101151.34;5045647;28;20067;-74
2022/08/21 19:10:50;;;;;;;9.68;3.10;;;;;;;23.37;51.63;101151.53;5042572;28;20292;-74
2022/08/21 19:13:19;;;;;;;7.22;2.47;;;;;;;23.26;52.11;101148.44;5045849;28;20056;-75
2022/08/21 19:15:51;;;;;;;7.45;3.25;;;;;;;23.19;52.96;101155.19;5046006;28;20048;-74
2022/08/21 19:18:20;;;;;;;7.22;2.47;;;;;;;23.15;52.44;101154.53;5045764;28;20060;-73
2022/08/21 19:20:54;;;;;;;6.93;2.17;;;;;;;23.13;52.97;101151.41;5044372;28;20055;-75
2022/08/21 19:23:23;;;;;;;7.97;2.78;;;;;;;23.10;52.94;101160.03;5043835;28;20733;-74
2022/08/21 19:25:58;;;;;;;6.25;2.50;;;;;;;23.09;53.53;101158.47;5043854;28;20063;-74
2022/08/21 19:28:28;;;;;;;10.18;2.38;;;;;;;23.02;53.61;101161.63;5035523;28;20301;-76
2022/08/21 19:31:11;;;;;;;8.98;2.90;;;;;;;22.95;54.20;101168.38;5039862;28;20146;-74
2022/08/21 19:33:46;;;;;;;8.13;2.55;;;;;;;22.88;54.61;101165.09;5037916;28;20561;-74
2022/08/21 19:36:16;;;;;;;6.03;2.27;;;;;;;22.84;54.61;101168.03;5032648;28;20518;-74
2022/08/21 19:38:44;;;;;;;9.05;2.72;;;;;;;22.82;55.41;101170.56;5038079;28;20802;-73
2022/08/21 19:41:14;;;;;;;10.30;3.10;;;;;;;22.81;55.75;101163.34;5042064;28;20080;-75
2022/08/21 19:43:48;;;;;;;9.95;2.53;;;;;;;22.85;56.28;101166.03;5044884;28;20048;-75
2022/08/21 19:46:23;;;;;;;10.30;2.80;;;;;;;22.83;55.90;101168.50;5044642;28;20142;-74
2022/08/21 19:48:51;;;;;;;10.00;3.30;;;;;;;22.83;56.55;101171.34;5043439;28;20298;-75
2022/08/21 19:51:18;;;;;;;10.65;3.42;;;;;;;22.79;56.50;101165.88;5043689;28;20808;-73
2022/08/21 19:53:44;;;;;;;13.20;4.10;;;;;;;22.67;57.00;101167.59;5046670;28;20150;-75
2022/08/21 19:56:16;;;;;;;10.98;3.10;;;;;;;22.59;58.58;101162.72;5045404;28;20166;-74
2022/08/21 19:58:46;;;;;;;12.50;3.65;;;;;;;22.56;58.00;101174.94;5042693;28;20283;-73
2022/08/21 20:01:17;;;;;;;10.10;4.30;;;;;;;22.48;61.31;101170.84;5045534;28;20047;-73
2022/08/21 20:03:45;;;;;;;8.00;2.72;;;;;;;22.40;59.05;101161.09;5047063;28;20565;-73
2022/08/21 20:06:19;;;;;;;8.52;3.25;;;;;;;22.29;61.60;101172.03;5046414;28;20064;-71
2022/08/21 20:08:47;;;;;;;7.72;2.70;;;;;;;22.19;63.06;101170.44;5042501;28;20860;-74
2022/08/21 20:11:24;;;;;;;8.68;3.35;;;;;;;22.08;63.19;101173.72;5044104;28;20826;-74
2022/08/21 20:13:52;;;;;;;9.43;2.67;;;;;;;22.04;63.92;101170.25;5044505;28;20139;-74